sensor_id;sensor_type;location;lat;lon;timestamp;pressure;altitude;pressure_sealevel;temperature
17142;BMP180;32805;53.556;9.944;2023-05-10T00:00:57;100636.00;;;15.50
17142;BMP180;32805;53.556;9.944;2023-05-10T00:03:24;100644.00;;;15.50
17142;BMP180;32805;53.556;9.944;2023-05-10T00:05:52;100640.00;;;15.40
17142;BMP180;32805;53.556;9.944;2023-05-10T00:08:20;100631.00;;;15.40
17142;BMP180;32805;53.556;9.944;2023-05-10T00:10:48;100622.00;;;15.40
17142;BMP180;32805;53.556;9.944;2023-05-10T00:13:17;100630.00;;;15.30
17142;BMP180;32805;53.556;9.944;2023-05-10T00:15:44;100633.00;;;15.20
17142;BMP180;32805;53.556;9.944;2023-05-10T00:18:12;100628.00;;;15.30
17142;BMP180;32805;53.556;9.944;2023-05-10T00:20:39;100628.00;;;15.20
17142;BMP180;32805;53.556;9.944;2023-05-10T00:23:07;100627.00;;;15.20
17142;BMP180;32805;53.556;9.944;2023-05-10T00:25:35;100632.00;;;15.20
17142;BMP180;32805;53.556;9.944;2023-05-10T00:28:02;100622.00;;;15.20
17142;BMP180;32805;53.556;9.944;2023-05-10T00:30:31;100624.00;;;15.20
17142;BMP180;32805;53.556;9.944;2023-05-10T00:33:00;100626.00;;;15.20
17142;BMP180;32805;53.556;9.944;2023-05-10T00:35:29;100625.00;;;15.10
17142;BMP180;32805;53.556;9.944;2023-05-10T00:37:56;100618.00;;;15.10
17142;BMP180;32805;53.556;9.944;2023-05-10T00:40:24;100615.00;;;15.10
17142;BMP180;32805;53.556;9.944;2023-05-10T00:42:57;100613.00;;;15.00
17142;BMP180;32805;53.556;9.944;2023-05-10T00:45:25;100614.00;;;15.00
17142;BMP180;32805;53.556;9.944;2023-05-10T00:47:54;100606.00;;;15.00
17142;BMP180;32805;53.556;9.944;2023-05-10T00:50:23;100614.00;;;14.90
17142;BMP180;32805;53.556;9.944;2023-05-10T00:52:50;100609.00;;;14.90
17142;BMP180;32805;53.556;9.944;2023-05-10T00:55:19;100608.00;;;14.90
17142;BMP180;32805;53.556;9.944;2023-05-10T00:57:47;100598.00;;;14.90
17142;BMP180;32805;53.556;9.944;2023-05-10T01:00:15;100599.00;;;14.80
17142;BMP180;32805;53.556;9.944;2023-05-10T01:02:44;100596.00;;;14.80
17142;BMP180;32805;53.556;9.944;2023-05-10T01:05:14;100594.00;;;14.80
17142;BMP180;32805;53.556;9.944;2023-05-10T01:07:42;100598.00;;;14.70
17142;BMP180;32805;53.556;9.944;2023-05-10T01:10:10;100593.00;;;14.70
17142;BMP180;32805;53.556;9.944;2023-05-10T01:12:39;100598.00;;;14.70
17142;BMP180;32805;53.556;9.944;2023-05-10T01:15:08;100594.00;;;14.70
17142;BMP180;32805;53.556;9.944;2023-05-10T01:17:39;100589.00;;;14.60
17142;BMP180;32805;53.556;9.944;2023-05-10T01:20:09;100594.00;;;14.60
17142;BMP180;32805;53.556;9.944;2023-05-10T01:22:58;100595.00;;;14.60
17142;BMP180;32805;53.556;9.944;2023-05-10T01:29:05;100588.00;;;14.50
17142;BMP180;32805;53.556;9.944;2023-05-10T01:31:52;100600.00;;;14.50
17142;BMP180;32805;53.556;9.944;2023-05-10T01:34:25;100599.00;;;14.40
17142;BMP180;32805;53.556;9.944;2023-05-10T01:36:58;100597.00;;;14.40
17142;BMP180;32805;53.556;9.944;2023-05-10T01:39:32;100589.00;;;14.40
17142;BMP180;32805;53.556;9.944;2023-05-10T01:42:08;100602.00;;;14.30
17142;BMP180;32805;53.556;9.944;2023-05-10T01:44:40;100596.00;;;14.30
17142;BMP180;32805;53.556;9.944;2023-05-10T01:47:15;100594.00;;;14.20
17142;BMP180;32805;53.556;9.944;2023-05-10T01:49:48;100599.00;;;14.30
17142;BMP180;32805;53.556;9.944;2023-05-10T01:52:20;100595.00;;;14.20
17142;BMP180;32805;53.556;9.944;2023-05-10T01:54:54;100582.00;;;14.20
17142;BMP180;32805;53.556;9.944;2023-05-10T01:57:25;100579.00;;;14.20
17142;BMP180;32805;53.556;9.944;2023-05-10T01:59:54;100573.00;;;14.10
17142;BMP180;32805;53.556;9.944;2023-05-10T02:02:24;100573.00;;;14.10
17142;BMP180;32805;53.556;9.944;2023-05-10T02:04:53;100577.00;;;14.10
17142;BMP180;32805;53.556;9.944;2023-05-10T02:07:22;100571.00;;;14.00
17142;BMP180;32805;53.556;9.944;2023-05-10T02:09:51;100579.00;;;14.00
17142;BMP180;32805;53.556;9.944;2023-05-10T02:12:20;100579.00;;;14.00
17142;BMP180;32805;53.556;9.944;2023-05-10T02:14:49;100577.00;;;14.00
17142;BMP180;32805;53.556;9.944;2023-05-10T02:17:18;100576.00;;;13.90
17142;BMP180;32805;53.556;9.944;2023-05-10T02:19:48;100588.00;;;13.90
17142;BMP180;32805;53.556;9.944;2023-05-10T02:22:18;100590.00;;;13.90
17142;BMP180;32805;53.556;9.944;2023-05-10T02:24:46;100582.00;;;13.80
17142;BMP180;32805;53.556;9.944;2023-05-10T02:27:15;100588.00;;;13.80
17142;BMP180;32805;53.556;9.944;2023-05-10T02:29:44;100580.00;;;13.80
17142;BMP180;32805;53.556;9.944;2023-05-10T02:32:12;100589.00;;;13.80
17142;BMP180;32805;53.556;9.944;2023-05-10T02:34:41;100589.00;;;13.80
17142;BMP180;32805;53.556;9.944;2023-05-10T02:37:14;100583.00;;;13.80
17142;BMP180;32805;53.556;9.944;2023-05-10T02:39:43;100592.00;;;13.80
17142;BMP180;32805;53.556;9.944;2023-05-10T02:42:15;100583.00;;;13.80
17142;BMP180;32805;53.556;9.944;2023-05-10T02:44:45;100577.00;;;13.80
17142;BMP180;32805;53.556;9.944;2023-05-10T02:47:14;100569.00;;;13.80
17142;BMP180;32805;53.556;9.944;2023-05-10T02:49:42;100570.00;;;13.80
17142;BMP180;32805;53.556;9.944;2023-05-10T02:52:10;100569.00;;;13.80
17142;BMP180;32805;53.556;9.944;2023-05-10T02:54:43;100578.00;;;13.70
17142;BMP180;32805;53.556;9.944;2023-05-10T02:57:15;100564.00;;;13.70
17142;BMP180;32805;53.556;9.944;2023-05-10T02:59:45;100570.00;;;13.70
17142;BMP180;32805;53.556;9.944;2023-05-10T03:02:13;100552.00;;;13.70
17142;BMP180;32805;53.556;9.944;2023-05-10T03:04:41;100562.00;;;13.70
17142;BMP180;32805;53.556;9.944;2023-05-10T03:07:09;100562.00;;;13.70
17142;BMP180;32805;53.556;9.944;2023-05-10T03:09:36;100563.00;;;13.70
17142;BMP180;32805;53.556;9.944;2023-05-10T03:12:17;100567.00;;;13.70
17142;BMP180;32805;53.556;9.944;2023-05-10T03:14:53;100558.00;;;13.70
17142;BMP180;32805;53.556;9.944;2023-05-10T03:17:30;100570.00;;;13.70
17142;BMP180;32805;53.556;9.944;2023-05-10T03:20:03;100559.00;;;13.70
17142;BMP180;32805;53.556;9.944;2023-05-10T03:22:36;100558.00;;;13.70
17142;BMP180;32805;53.556;9.944;2023-05-10T03:25:06;100558.00;;;13.70
17142;BMP180;32805;53.556;9.944;2023-05-10T03:27:39;100558.00;;;13.70
17142;BMP180;32805;53.556;9.944;2023-05-10T03:30:08;100560.00;;;13.60
17142;BMP180;32805;53.556;9.944;2023-05-10T03:32:37;100557.00;;;13.60
17142;BMP180;32805;53.556;9.944;2023-05-10T03:35:06;100562.00;;;13.60
17142;BMP180;32805;53.556;9.944;2023-05-10T03:37:35;100566.00;;;13.60
17142;BMP180;32805;53.556;9.944;2023-05-10T03:40:03;100561.00;;;13.60
17142;BMP180;32805;53.556;9.944;2023-05-10T03:42:33;100561.00;;;13.60
17142;BMP180;32805;53.556;9.944;2023-05-10T03:45:02;100572.00;;;13.60
17142;BMP180;32805;53.556;9.944;2023-05-10T03:47:30;100565.00;;;13.60
17142;BMP180;32805;53.556;9.944;2023-05-10T03:49:58;100560.00;;;13.60
17142;BMP180;32805;53.556;9.944;2023-05-10T03:52:26;100560.00;;;13.60
17142;BMP180;32805;53.556;9.944;2023-05-10T03:54:54;100557.00;;;13.60
17142;BMP180;32805;53.556;9.944;2023-05-10T03:57:23;100556.00;;;13.60
17142;BMP180;32805;53.556;9.944;2023-05-10T03:59:50;100565.00;;;13.60
17142;BMP180;32805;53.556;9.944;2023-05-10T04:02:19;100562.00;;;13.70
17142;BMP180;32805;53.556;9.944;2023-05-10T04:04:47;100560.00;;;13.60
17142;BMP180;32805;53.556;9.944;2023-05-10T04:07:16;100554.00;;;13.70
17142;BMP180;32805;53.556;9.944;2023-05-10T04:09:44;100557.00;;;13.70
17142;BMP180;32805;53.556;9.944;2023-05-10T04:12:11;100560.00;;;13.70
17142;BMP180;32805;53.556;9.944;2023-05-10T04:14:39;100568.00;;;13.80
17142;BMP180;32805;53.556;9.944;2023-05-10T04:17:07;100564.00;;;13.80
17142;BMP180;32805;53.556;9.944;2023-05-10T04:19:35;100563.00;;;13.80
17142;BMP180;32805;53.556;9.944;2023-05-10T04:22:03;100557.00;;;13.70
17142;BMP180;32805;53.556;9.944;2023-05-10T04:24:31;100554.00;;;13.70
17142;BMP180;32805;53.556;9.944;2023-05-10T04:26:58;100552.00;;;13.70
17142;BMP180;32805;53.556;9.944;2023-05-10T04:29:26;100554.00;;;13.70
17142;BMP180;32805;53.556;9.944;2023-05-10T04:31:54;100560.00;;;13.80
17142;BMP180;32805;53.556;9.944;2023-05-10T04:34:22;100564.00;;;13.80
17142;BMP180;32805;53.556;9.944;2023-05-10T04:36:51;100559.00;;;13.80
17142;BMP180;32805;53.556;9.944;2023-05-10T04:39:19;100554.00;;;13.70
17142;BMP180;32805;53.556;9.944;2023-05-10T04:41:47;100558.00;;;13.70
17142;BMP180;32805;53.556;9.944;2023-05-10T04:44:14;100559.00;;;13.70
17142;BMP180;32805;53.556;9.944;2023-05-10T04:46:42;100561.00;;;13.70
17142;BMP180;32805;53.556;9.944;2023-05-10T04:49:10;100546.00;;;13.70
17142;BMP180;32805;53.556;9.944;2023-05-10T04:51:37;100558.00;;;13.70
17142;BMP180;32805;53.556;9.944;2023-05-10T04:54:06;100553.00;;;13.70
17142;BMP180;32805;53.556;9.944;2023-05-10T04:56:34;100556.00;;;13.70
17142;BMP180;32805;53.556;9.944;2023-05-10T04:59:02;100559.00;;;13.70
17142;BMP180;32805;53.556;9.944;2023-05-10T05:01:30;100559.00;;;13.80
17142;BMP180;32805;53.556;9.944;2023-05-10T05:03:57;100564.00;;;13.80
17142;BMP180;32805;53.556;9.944;2023-05-10T05:06:25;100568.00;;;13.80
17142;BMP180;32805;53.556;9.944;2023-05-10T05:08:53;100551.00;;;13.80
17142;BMP180;32805;53.556;9.944;2023-05-10T05:11:22;100556.00;;;13.80
17142;BMP180;32805;53.556;9.944;2023-05-10T05:13:50;100555.00;;;13.90
17142;BMP180;32805;53.556;9.944;2023-05-10T05:16:18;100550.00;;;13.90
17142;BMP180;32805;53.556;9.944;2023-05-10T05:18:45;100552.00;;;13.90
17142;BMP180;32805;53.556;9.944;2023-05-10T05:21:13;100557.00;;;13.90
17142;BMP180;32805;53.556;9.944;2023-05-10T05:23:42;100553.00;;;14.00
17142;BMP180;32805;53.556;9.944;2023-05-10T05:26:10;100570.00;;;14.10
17142;BMP180;32805;53.556;9.944;2023-05-10T05:28:39;100554.00;;;14.20
17142;BMP180;32805;53.556;9.944;2023-05-10T05:31:07;100554.00;;;14.20
17142;BMP180;32805;53.556;9.944;2023-05-10T05:33:35;100553.00;;;14.30
17142;BMP180;32805;53.556;9.944;2023-05-10T05:36:04;100554.00;;;14.30
17142;BMP180;32805;53.556;9.944;2023-05-10T05:38:32;100557.00;;;14.40
17142;BMP180;32805;53.556;9.944;2023-05-10T05:41:00;100551.00;;;14.40
17142;BMP180;32805;53.556;9.944;2023-05-10T05:43:28;100555.00;;;14.50
17142;BMP180;32805;53.556;9.944;2023-05-10T05:45:57;100560.00;;;14.60
17142;BMP180;32805;53.556;9.944;2023-05-10T05:48:25;100556.00;;;14.60
17142;BMP180;32805;53.556;9.944;2023-05-10T05:50:54;100561.00;;;14.70
17142;BMP180;32805;53.556;9.944;2023-05-10T05:53:23;100559.00;;;14.70
17142;BMP180;32805;53.556;9.944;2023-05-10T05:55:51;100558.00;;;14.80
17142;BMP180;32805;53.556;9.944;2023-05-10T05:58:20;100554.00;;;14.90
17142;BMP180;32805;53.556;9.944;2023-05-10T06:00:48;100556.00;;;14.90
17142;BMP180;32805;53.556;9.944;2023-05-10T06:03:18;100564.00;;;15.00
17142;BMP180;32805;53.556;9.944;2023-05-10T06:05:46;100552.00;;;15.10
17142;BMP180;32805;53.556;9.944;2023-05-10T06:08:14;100557.00;;;15.20
17142;BMP180;32805;53.556;9.944;2023-05-10T06:10:42;100554.00;;;15.30
17142;BMP180;32805;53.556;9.944;2023-05-10T06:13:10;100558.00;;;15.40
17142;BMP180;32805;53.556;9.944;2023-05-10T06:15:38;100554.00;;;15.50
17142;BMP180;32805;53.556;9.944;2023-05-10T06:18:06;100567.00;;;15.50
17142;BMP180;32805;53.556;9.944;2023-05-10T06:20:35;100561.00;;;15.60
17142;BMP180;32805;53.556;9.944;2023-05-10T06:23:03;100561.00;;;15.70
17142;BMP180;32805;53.556;9.944;2023-05-10T06:25:30;100563.00;;;15.70
17142;BMP180;32805;53.556;9.944;2023-05-10T06:27:58;100564.00;;;15.80
17142;BMP180;32805;53.556;9.944;2023-05-10T06:30:26;100570.00;;;16.00
17142;BMP180;32805;53.556;9.944;2023-05-10T06:32:56;100567.00;;;16.10
17142;BMP180;32805;53.556;9.944;2023-05-10T06:35:24;100574.00;;;16.10
17142;BMP180;32805;53.556;9.944;2023-05-10T06:37:53;100573.00;;;16.20
17142;BMP180;32805;53.556;9.944;2023-05-10T06:40:21;100578.00;;;16.20
17142;BMP180;32805;53.556;9.944;2023-05-10T06:42:49;100575.00;;;16.20
17142;BMP180;32805;53.556;9.944;2023-05-10T06:45:17;100583.00;;;16.30
17142;BMP180;32805;53.556;9.944;2023-05-10T06:47:47;100587.00;;;16.40
17142;BMP180;32805;53.556;9.944;2023-05-10T06:50:14;100583.00;;;16.50
17142;BMP180;32805;53.556;9.944;2023-05-10T06:52:42;100588.00;;;16.60
17142;BMP180;32805;53.556;9.944;2023-05-10T06:55:11;100581.00;;;16.70
17142;BMP180;32805;53.556;9.944;2023-05-10T06:57:39;100579.00;;;16.90
17142;BMP180;32805;53.556;9.944;2023-05-10T07:00:08;100587.00;;;17.10
17142;BMP180;32805;53.556;9.944;2023-05-10T07:02:36;100579.00;;;17.20
17142;BMP180;32805;53.556;9.944;2023-05-10T07:05:05;100580.00;;;17.40
17142;BMP180;32805;53.556;9.944;2023-05-10T07:07:32;100579.00;;;17.60
17142;BMP180;32805;53.556;9.944;2023-05-10T07:10:00;100581.00;;;17.70
17142;BMP180;32805;53.556;9.944;2023-05-10T07:12:29;100586.00;;;17.80
17142;BMP180;32805;53.556;9.944;2023-05-10T07:14:57;100580.00;;;17.90
17142;BMP180;32805;53.556;9.944;2023-05-10T07:17:25;100577.00;;;18.10
17142;BMP180;32805;53.556;9.944;2023-05-10T07:19:53;100580.00;;;18.20
17142;BMP180;32805;53.556;9.944;2023-05-10T07:22:20;100577.00;;;18.20
17142;BMP180;32805;53.556;9.944;2023-05-10T07:24:48;100583.00;;;18.20
17142;BMP180;32805;53.556;9.944;2023-05-10T07:27:16;100593.00;;;18.20
17142;BMP180;32805;53.556;9.944;2023-05-10T07:29:45;100582.00;;;18.20
17142;BMP180;32805;53.556;9.944;2023-05-10T07:32:12;100591.00;;;18.30
17142;BMP180;32805;53.556;9.944;2023-05-10T07:34:40;100590.00;;;18.40
17142;BMP180;32805;53.556;9.944;2023-05-10T07:37:08;100592.00;;;18.50
17142;BMP180;32805;53.556;9.944;2023-05-10T07:39:36;100588.00;;;18.50
17142;BMP180;32805;53.556;9.944;2023-05-10T07:42:03;100592.00;;;18.50
17142;BMP180;32805;53.556;9.944;2023-05-10T07:44:32;100591.00;;;18.50
17142;BMP180;32805;53.556;9.944;2023-05-10T07:47:04;100592.00;;;18.60
17142;BMP180;32805;53.556;9.944;2023-05-10T07:49:31;100594.00;;;18.70
17142;BMP180;32805;53.556;9.944;2023-05-10T07:52:02;100589.00;;;18.80
17142;BMP180;32805;53.556;9.944;2023-05-10T07:54:30;100587.00;;;18.80
17142;BMP180;32805;53.556;9.944;2023-05-10T07:56:59;100594.00;;;18.90
17142;BMP180;32805;53.556;9.944;2023-05-10T07:59:29;100590.00;;;18.90
17142;BMP180;32805;53.556;9.944;2023-05-10T08:02:01;100594.00;;;19.00
17142;BMP180;32805;53.556;9.944;2023-05-10T08:04:29;100598.00;;;18.90
17142;BMP180;32805;53.556;9.944;2023-05-10T08:06:57;100598.00;;;19.00
17142;BMP180;32805;53.556;9.944;2023-05-10T08:09:24;100605.00;;;19.00
17142;BMP180;32805;53.556;9.944;2023-05-10T08:11:52;100607.00;;;19.00
17142;BMP180;32805;53.556;9.944;2023-05-10T08:14:23;100613.00;;;19.00
17142;BMP180;32805;53.556;9.944;2023-05-10T08:16:50;100618.00;;;18.90
17142;BMP180;32805;53.556;9.944;2023-05-10T08:19:19;100621.00;;;18.90
17142;BMP180;32805;53.556;9.944;2023-05-10T08:21:48;100631.00;;;19.00
17142;BMP180;32805;53.556;9.944;2023-05-10T08:24:15;100630.00;;;19.10
17142;BMP180;32805;53.556;9.944;2023-05-10T08:26:43;100623.00;;;19.20
17142;BMP180;32805;53.556;9.944;2023-05-10T08:29:11;100623.00;;;19.30
17142;BMP180;32805;53.556;9.944;2023-05-10T08:31:38;100619.00;;;19.40
17142;BMP180;32805;53.556;9.944;2023-05-10T08:34:06;100616.00;;;19.40
17142;BMP180;32805;53.556;9.944;2023-05-10T08:36:36;100623.00;;;19.50
17142;BMP180;32805;53.556;9.944;2023-05-10T08:39:04;100620.00;;;19.50
17142;BMP180;32805;53.556;9.944;2023-05-10T08:41:46;100632.00;;;19.60
17142;BMP180;32805;53.556;9.944;2023-05-10T08:44:15;100626.00;;;19.70
17142;BMP180;32805;53.556;9.944;2023-05-10T08:46:46;100625.00;;;19.80
17142;BMP180;32805;53.556;9.944;2023-05-10T08:49:16;100620.00;;;19.80
17142;BMP180;32805;53.556;9.944;2023-05-10T08:51:54;100626.00;;;19.80
17142;BMP180;32805;53.556;9.944;2023-05-10T08:54:22;100636.00;;;19.80
17142;BMP180;32805;53.556;9.944;2023-05-10T08:56:50;100641.00;;;19.80
17142;BMP180;32805;53.556;9.944;2023-05-10T08:59:19;100655.00;;;19.80
17142;BMP180;32805;53.556;9.944;2023-05-10T09:01:48;100655.00;;;19.80
17142;BMP180;32805;53.556;9.944;2023-05-10T09:04:17;100640.00;;;19.80
17142;BMP180;32805;53.556;9.944;2023-05-10T09:06:46;100652.00;;;19.70
17142;BMP180;32805;53.556;9.944;2023-05-10T09:09:14;100660.00;;;19.80
17142;BMP180;32805;53.556;9.944;2023-05-10T09:11:42;100662.00;;;19.90
17142;BMP180;32805;53.556;9.944;2023-05-10T09:14:12;100665.00;;;20.00
17142;BMP180;32805;53.556;9.944;2023-05-10T09:16:40;100666.00;;;20.00
17142;BMP180;32805;53.556;9.944;2023-05-10T09:19:08;100666.00;;;20.00
17142;BMP180;32805;53.556;9.944;2023-05-10T09:21:36;100675.00;;;19.90
17142;BMP180;32805;53.556;9.944;2023-05-10T09:24:07;100673.00;;;19.90
17142;BMP180;32805;53.556;9.944;2023-05-10T09:26:45;100677.00;;;19.80
17142;BMP180;32805;53.556;9.944;2023-05-10T09:29:13;100689.00;;;19.80
17142;BMP180;32805;53.556;9.944;2023-05-10T09:31:44;100689.00;;;19.80
17142;BMP180;32805;53.556;9.944;2023-05-10T09:34:17;100693.00;;;19.70
17142;BMP180;32805;53.556;9.944;2023-05-10T09:36:55;100695.00;;;19.70
17142;BMP180;32805;53.556;9.944;2023-05-10T09:39:32;100701.00;;;19.50
17142;BMP180;32805;53.556;9.944;2023-05-10T09:42:02;100711.00;;;19.40
17142;BMP180;32805;53.556;9.944;2023-05-10T09:44:31;100714.00;;;19.20
17142;BMP180;32805;53.556;9.944;2023-05-10T09:46:59;100721.00;;;19.10
17142;BMP180;32805;53.556;9.944;2023-05-10T09:49:27;100706.00;;;18.90
17142;BMP180;32805;53.556;9.944;2023-05-10T09:52:03;100714.00;;;18.80
17142;BMP180;32805;53.556;9.944;2023-05-10T09:54:33;100718.00;;;18.80
17142;BMP180;32805;53.556;9.944;2023-05-10T09:57:02;100719.00;;;18.50
17142;BMP180;32805;53.556;9.944;2023-05-10T09:59:32;100727.00;;;18.30
17142;BMP180;32805;53.556;9.944;2023-05-10T10:02:01;100734.00;;;18.00
17142;BMP180;32805;53.556;9.944;2023-05-10T10:04:53;100739.00;;;17.80
17142;BMP180;32805;53.556;9.944;2023-05-10T10:07:23;100750.00;;;17.70
17142;BMP180;32805;53.556;9.944;2023-05-10T10:09:53;100749.00;;;17.50
17142;BMP180;32805;53.556;9.944;2023-05-10T10:12:21;100749.00;;;17.40
17142;BMP180;32805;53.556;9.944;2023-05-10T10:14:49;100749.00;;;17.20
17142;BMP180;32805;53.556;9.944;2023-05-10T10:17:18;100762.00;;;17.00
17142;BMP180;32805;53.556;9.944;2023-05-10T10:19:48;100757.00;;;16.90
17142;BMP180;32805;53.556;9.944;2023-05-10T10:22:16;100758.00;;;16.90
17142;BMP180;32805;53.556;9.944;2023-05-10T10:24:45;100761.00;;;16.80
17142;BMP180;32805;53.556;9.944;2023-05-10T10:27:23;100754.00;;;16.70
17142;BMP180;32805;53.556;9.944;2023-05-10T10:30:04;100756.00;;;16.60
17142;BMP180;32805;53.556;9.944;2023-05-10T10:32:42;100769.00;;;16.70
17142;BMP180;32805;53.556;9.944;2023-05-10T10:35:14;100755.00;;;16.90
17142;BMP180;32805;53.556;9.944;2023-05-10T10:37:44;100767.00;;;17.10
17142;BMP180;32805;53.556;9.944;2023-05-10T10:40:27;100768.00;;;17.30
17142;BMP180;32805;53.556;9.944;2023-05-10T10:43:23;100762.00;;;17.40
17142;BMP180;32805;53.556;9.944;2023-05-10T10:46:11;100763.00;;;17.50
17142;BMP180;32805;53.556;9.944;2023-05-10T10:48:40;100775.00;;;17.60
17142;BMP180;32805;53.556;9.944;2023-05-10T10:51:09;100774.00;;;17.60
17142;BMP180;32805;53.556;9.944;2023-05-10T10:53:39;100772.00;;;17.70
17142;BMP180;32805;53.556;9.944;2023-05-10T10:56:08;100779.00;;;17.70
17142;BMP180;32805;53.556;9.944;2023-05-10T10:58:38;100765.00;;;17.80
17142;BMP180;32805;53.556;9.944;2023-05-10T11:01:14;100779.00;;;17.80
17142;BMP180;32805;53.556;9.944;2023-05-10T11:04:16;100781.00;;;17.90
17142;BMP180;32805;53.556;9.944;2023-05-10T11:06:44;100779.00;;;17.90
17142;BMP180;32805;53.556;9.944;2023-05-10T11:09:12;100784.00;;;17.90
17142;BMP180;32805;53.556;9.944;2023-05-10T11:11:52;100775.00;;;18.00
17142;BMP180;32805;53.556;9.944;2023-05-10T11:14:23;100782.00;;;18.10
17142;BMP180;32805;53.556;9.944;2023-05-10T11:16:51;100785.00;;;18.20
17142;BMP180;32805;53.556;9.944;2023-05-10T11:19:19;100788.00;;;18.10
17142;BMP180;32805;53.556;9.944;2023-05-10T11:21:48;100788.00;;;18.00
17142;BMP180;32805;53.556;9.944;2023-05-10T11:24:17;100792.00;;;17.90
17142;BMP180;32805;53.556;9.944;2023-05-10T11:26:45;100792.00;;;17.80
17142;BMP180;32805;53.556;9.944;2023-05-10T11:29:15;100797.00;;;17.80
17142;BMP180;32805;53.556;9.944;2023-05-10T11:31:45;100798.00;;;17.80
17142;BMP180;32805;53.556;9.944;2023-05-10T11:34:23;100806.00;;;17.80
17142;BMP180;32805;53.556;9.944;2023-05-10T11:36:51;100802.00;;;17.70
17142;BMP180;32805;53.556;9.944;2023-05-10T11:39:25;100800.00;;;17.70
17142;BMP180;32805;53.556;9.944;2023-05-10T11:41:53;100797.00;;;17.80
17142;BMP180;32805;53.556;9.944;2023-05-10T11:44:21;100798.00;;;17.70
17142;BMP180;32805;53.556;9.944;2023-05-10T11:46:50;100806.00;;;17.70
17142;BMP180;32805;53.556;9.944;2023-05-10T11:49:18;100814.00;;;17.70
17142;BMP180;32805;53.556;9.944;2023-05-10T11:51:47;100811.00;;;17.70
17142;BMP180;32805;53.556;9.944;2023-05-10T11:54:14;100816.00;;;17.70
17142;BMP180;32805;53.556;9.944;2023-05-10T11:56:42;100821.00;;;17.60
17142;BMP180;32805;53.556;9.944;2023-05-10T11:59:13;100818.00;;;17.60
17142;BMP180;32805;53.556;9.944;2023-05-10T12:01:41;100822.00;;;17.50
17142;BMP180;32805;53.556;9.944;2023-05-10T12:04:10;100827.00;;;17.60
17142;BMP180;32805;53.556;9.944;2023-05-10T12:06:40;100825.00;;;17.80
17142;BMP180;32805;53.556;9.944;2023-05-10T12:09:08;100823.00;;;18.00
17142;BMP180;32805;53.556;9.944;2023-05-10T12:11:37;100831.00;;;18.20
17142;BMP180;32805;53.556;9.944;2023-05-10T12:14:09;100829.00;;;18.30
17142;BMP180;32805;53.556;9.944;2023-05-10T12:16:37;100823.00;;;18.40
17142;BMP180;32805;53.556;9.944;2023-05-10T12:19:05;100829.00;;;18.50
17142;BMP180;32805;53.556;9.944;2023-05-10T12:21:34;100831.00;;;18.60
17142;BMP180;32805;53.556;9.944;2023-05-10T12:24:03;100831.00;;;18.60
17142;BMP180;32805;53.556;9.944;2023-05-10T12:26:31;100826.00;;;18.50
17142;BMP180;32805;53.556;9.944;2023-05-10T12:29:12;100838.00;;;18.60
17142;BMP180;32805;53.556;9.944;2023-05-10T12:31:55;100834.00;;;18.60
17142;BMP180;32805;53.556;9.944;2023-05-10T12:34:24;100844.00;;;18.60
17142;BMP180;32805;53.556;9.944;2023-05-10T12:36:54;100832.00;;;18.50
17142;BMP180;32805;53.556;9.944;2023-05-10T12:39:22;100832.00;;;18.40
17142;BMP180;32805;53.556;9.944;2023-05-10T12:41:51;100853.00;;;18.60
17142;BMP180;32805;53.556;9.944;2023-05-10T12:44:19;100838.00;;;18.80
17142;BMP180;32805;53.556;9.944;2023-05-10T12:46:46;100844.00;;;18.90
17142;BMP180;32805;53.556;9.944;2023-05-10T12:49:14;100846.00;;;19.00
17142;BMP180;32805;53.556;9.944;2023-05-10T12:51:41;100839.00;;;19.20
17142;BMP180;32805;53.556;9.944;2023-05-10T12:54:10;100838.00;;;19.30
17142;BMP180;32805;53.556;9.944;2023-05-10T12:56:38;100835.00;;;19.40
17142;BMP180;32805;53.556;9.944;2023-05-10T12:59:07;100844.00;;;19.60
17142;BMP180;32805;53.556;9.944;2023-05-10T13:01:36;100846.00;;;19.80
17142;BMP180;32805;53.556;9.944;2023-05-10T13:04:06;100850.00;;;19.80
17142;BMP180;32805;53.556;9.944;2023-05-10T13:06:34;100845.00;;;19.90
17142;BMP180;32805;53.556;9.944;2023-05-10T13:09:02;100849.00;;;19.80
17142;BMP180;32805;53.556;9.944;2023-05-10T13:11:31;100850.00;;;19.80
17142;BMP180;32805;53.556;9.944;2023-05-10T13:13:59;100847.00;;;19.80
17142;BMP180;32805;53.556;9.944;2023-05-10T13:16:32;100851.00;;;20.00
17142;BMP180;32805;53.556;9.944;2023-05-10T13:19:00;100846.00;;;20.20
17142;BMP180;32805;53.556;9.944;2023-05-10T13:21:29;100850.00;;;20.40
17142;BMP180;32805;53.556;9.944;2023-05-10T13:23:56;100851.00;;;20.60
17142;BMP180;32805;53.556;9.944;2023-05-10T13:26:24;100856.00;;;20.60
17142;BMP180;32805;53.556;9.944;2023-05-10T13:28:54;100849.00;;;20.60
17142;BMP180;32805;53.556;9.944;2023-05-10T13:31:21;100845.00;;;20.70
17142;BMP180;32805;53.556;9.944;2023-05-10T13:33:49;100849.00;;;20.80
17142;BMP180;32805;53.556;9.944;2023-05-10T13:36:17;100851.00;;;20.80
17142;BMP180;32805;53.556;9.944;2023-05-10T13:38:44;100852.00;;;20.70
17142;BMP180;32805;53.556;9.944;2023-05-10T13:41:15;100863.00;;;20.70
17142;BMP180;32805;53.556;9.944;2023-05-10T13:43:42;100847.00;;;20.70
17142;BMP180;32805;53.556;9.944;2023-05-10T13:46:12;100861.00;;;20.60
17142;BMP180;32805;53.556;9.944;2023-05-10T13:48:39;100856.00;;;20.50
17142;BMP180;32805;53.556;9.944;2023-05-10T13:51:07;100855.00;;;20.40
17142;BMP180;32805;53.556;9.944;2023-05-10T13:53:35;100857.00;;;20.20
17142;BMP180;32805;53.556;9.944;2023-05-10T13:56:06;100853.00;;;20.10
17142;BMP180;32805;53.556;9.944;2023-05-10T13:58:33;100855.00;;;20.30
17142;BMP180;32805;53.556;9.944;2023-05-10T14:01:02;100853.00;;;20.80
17142;BMP180;32805;53.556;9.944;2023-05-10T14:03:32;100850.00;;;21.40
17142;BMP180;32805;53.556;9.944;2023-05-10T14:06:00;100845.00;;;21.70
17142;BMP180;32805;53.556;9.944;2023-05-10T14:08:28;100836.00;;;21.70
17142;BMP180;32805;53.556;9.944;2023-05-10T14:10:56;100846.00;;;21.60
17142;BMP180;32805;53.556;9.944;2023-05-10T14:13:23;100848.00;;;21.40